sensor_id;sensor_type;location;lat;lon;timestamp;temperature;humidity
65692;DHT22;52411;52.716;6.696;2023-08-12T00:01:01;19.70;99.90
65692;DHT22;52411;52.716;6.696;2023-08-12T00:03:26;19.70;99.90
65692;DHT22;52411;52.716;6.696;2023-08-12T00:05:53;19.70;99.90
65692;DHT22;52411;52.716;6.696;2023-08-12T00:08:19;19.70;99.90
65692;DHT22;52411;52.716;6.696;2023-08-12T00:10:44;19.70;99.90
65692;DHT22;52411;52.716;6.696;2023-08-12T00:13:10;19.60;99.90
65692;DHT22;52411;52.716;6.696;2023-08-12T00:15:35;19.60;99.90
65692;DHT22;52411;52.716;6.696;2023-08-12T00:18:01;19.60;99.90
65692;DHT22;52411;52.716;6.696;2023-08-12T00:20:29;19.50;99.90
65692;DHT22;52411;52.716;6.696;2023-08-12T00:22:55;19.50;99.90
65692;DHT22;52411;52.716;6.696;2023-08-12T00:25:20;19.50;99.90
65692;DHT22;52411;52.716;6.696;2023-08-12T00:27:46;19.50;99.90
65692;DHT22;52411;52.716;6.696;2023-08-12T00:30:12;19.60;99.90
65692;DHT22;52411;52.716;6.696;2023-08-12T00:32:37;19.60;99.90
65692;DHT22;52411;52.716;6.696;2023-08-12T00:35:04;19.60;99.90
65692;DHT22;52411;52.716;6.696;2023-08-12T00:37:29;19.60;99.90
65692;DHT22;52411;52.716;6.696;2023-08-12T00:39:55;19.50;99.90
65692;DHT22;52411;52.716;6.696;2023-08-12T00:42:20;19.50;99.90
65692;DHT22;52411;52.716;6.696;2023-08-12T00:44:46;19.40;99.90
65692;DHT22;52411;52.716;6.696;2023-08-12T00:47:12;19.40;99.90
65692;DHT22;52411;52.716;6.696;2023-08-12T00:49:39;19.30;99.90
65692;DHT22;52411;52.716;6.696;2023-08-12T00:52:05;19.40;99.90
65692;DHT22;52411;52.716;6.696;2023-08-12T00:54:31;19.40;99.90
65692;DHT22;52411;52.716;6.696;2023-08-12T00:56:56;19.40;99.90
65692;DHT22;52411;52.716;6.696;2023-08-12T00:59:22;19.40;99.90
65692;DHT22;52411;52.716;6.696;2023-08-12T01:01:49;19.30;99.90
65692;DHT22;52411;52.716;6.696;2023-08-12T01:04:15;19.30;99.90
65692;DHT22;52411;52.716;6.696;2023-08-12T01:06:40;19.30;99.90
65692;DHT22;52411;52.716;6.696;2023-08-12T01:09:07;19.30;99.90
65692;DHT22;52411;52.716;6.696;2023-08-12T01:11:35;19.20;99.90
65692;DHT22;52411;52.716;6.696;2023-08-12T01:14:14;19.20;99.90
65692;DHT22;52411;52.716;6.696;2023-08-12T01:16:45;19.20;99.90
65692;DHT22;52411;52.716;6.696;2023-08-12T01:19:22;19.20;99.90
65692;DHT22;52411;52.716;6.696;2023-08-12T01:21:53;19.20;99.90
65692;DHT22;52411;52.716;6.696;2023-08-12T01:24:21;19.20;99.90
65692;DHT22;52411;52.716;6.696;2023-08-12T01:26:47;19.20;99.90
65692;DHT22;52411;52.716;6.696;2023-08-12T01:29:13;19.20;99.90
65692;DHT22;52411;52.716;6.696;2023-08-12T01:31:52;19.30;99.90
65692;DHT22;52411;52.716;6.696;2023-08-12T01:34:46;19.20;99.90
65692;DHT22;52411;52.716;6.696;2023-08-12T01:37:24;19.20;99.90
65692;DHT22;52411;52.716;6.696;2023-08-12T01:39:52;19.10;99.90
65692;DHT22;52411;52.716;6.696;2023-08-12T01:42:19;19.20;99.90
65692;DHT22;52411;52.716;6.696;2023-08-12T01:44:46;19.20;99.90
65692;DHT22;52411;52.716;6.696;2023-08-12T01:47:12;19.20;99.90
65692;DHT22;52411;52.716;6.696;2023-08-12T01:49:37;19.20;99.90
65692;DHT22;52411;52.716;6.696;2023-08-12T01:52:03;19.10;99.90
65692;DHT22;52411;52.716;6.696;2023-08-12T01:54:29;19.10;99.90
65692;DHT22;52411;52.716;6.696;2023-08-12T01:57:03;19.20;99.90
65692;DHT22;52411;52.716;6.696;2023-08-12T01:59:37;19.20;99.90
65692;DHT22;52411;52.716;6.696;2023-08-12T02:02:03;19.10;99.90
65692;DHT22;52411;52.716;6.696;2023-08-12T02:04:29;19.10;99.90
65692;DHT22;52411;52.716;6.696;2023-08-12T02:06:55;19.10;99.90
65692;DHT22;52411;52.716;6.696;2023-08-12T02:09:21;19.10;99.90
65692;DHT22;52411;52.716;6.696;2023-08-12T02:11:48;19.10;99.90
65692;DHT22;52411;52.716;6.696;2023-08-12T02:14:14;19.10;99.90
65692;DHT22;52411;52.716;6.696;2023-08-12T02:16:40;19.10;99.90
65692;DHT22;52411;52.716;6.696;2023-08-12T02:19:05;19.10;99.90
65692;DHT22;52411;52.716;6.696;2023-08-12T02:21:31;19.20;99.90
65692;DHT22;52411;52.716;6.696;2023-08-12T02:23:57;19.20;99.90
65692;DHT22;52411;52.716;6.696;2023-08-12T02:26:22;19.20;99.90
65692;DHT22;52411;52.716;6.696;2023-08-12T02:28:48;19.20;99.90
65692;DHT22;52411;52.716;6.696;2023-08-12T02:31:14;19.20;99.90
65692;DHT22;52411;52.716;6.696;2023-08-12T02:33:40;19.30;99.90
65692;DHT22;52411;52.716;6.696;2023-08-12T02:36:06;19.30;99.90
65692;DHT22;52411;52.716;6.696;2023-08-12T02:38:31;19.30;99.90
65692;DHT22;52411;52.716;6.696;2023-08-12T02:40:57;19.30;99.90
65692;DHT22;52411;52.716;6.696;2023-08-12T02:43:23;19.30;99.90
65692;DHT22;52411;52.716;6.696;2023-08-12T02:45:48;19.30;99.90
65692;DHT22;52411;52.716;6.696;2023-08-12T02:48:14;19.30;99.90
65692;DHT22;52411;52.716;6.696;2023-08-12T02:50:39;19.40;99.90
65692;DHT22;52411;52.716;6.696;2023-08-12T02:53:06;19.40;99.90
65692;DHT22;52411;52.716;6.696;2023-08-12T02:55:32;19.30;99.90
65692;DHT22;52411;52.716;6.696;2023-08-12T02:57:58;19.30;99.90
65692;DHT22;52411;52.716;6.696;2023-08-12T03:00:24;19.30;99.90
65692;DHT22;52411;52.716;6.696;2023-08-12T03:02:49;19.30;99.90
65692;DHT22;52411;52.716;6.696;2023-08-12T03:05:15;19.30;99.90
65692;DHT22;52411;52.716;6.696;2023-08-12T03:07:41;19.20;99.90
65692;DHT22;52411;52.716;6.696;2023-08-12T03:10:07;19.20;99.90
65692;DHT22;52411;52.716;6.696;2023-08-12T03:12:33;19.20;99.90
65692;DHT22;52411;52.716;6.696;2023-08-12T03:14:59;19.10;99.90
65692;DHT22;52411;52.716;6.696;2023-08-12T03:17:25;19.10;99.90
65692;DHT22;52411;52.716;6.696;2023-08-12T03:19:51;19.10;99.90
65692;DHT22;52411;52.716;6.696;2023-08-12T03:22:16;19.10;99.90
65692;DHT22;52411;52.716;6.696;2023-08-12T03:24:42;19.00;99.90
65692;DHT22;52411;52.716;6.696;2023-08-12T03:27:07;19.00;99.90
65692;DHT22;52411;52.716;6.696;2023-08-12T03:29:33;19.00;99.90
65692;DHT22;52411;52.716;6.696;2023-08-12T03:31:59;19.00;99.90
65692;DHT22;52411;52.716;6.696;2023-08-12T03:34:24;19.10;99.90
65692;DHT22;52411;52.716;6.696;2023-08-12T03:36:50;19.10;99.90
65692;DHT22;52411;52.716;6.696;2023-08-12T03:39:16;19.10;99.90
65692;DHT22;52411;52.716;6.696;2023-08-12T03:41:42;19.20;99.90
65692;DHT22;52411;52.716;6.696;2023-08-12T03:44:07;19.10;99.90
65692;DHT22;52411;52.716;6.696;2023-08-12T03:46:33;19.20;99.90
65692;DHT22;52411;52.716;6.696;2023-08-12T03:48:59;19.20;99.90
65692;DHT22;52411;52.716;6.696;2023-08-12T03:51:25;19.10;99.90
65692;DHT22;52411;52.716;6.696;2023-08-12T03:53:50;19.10;99.90
65692;DHT22;52411;52.716;6.696;2023-08-12T03:56:16;19.10;99.90
65692;DHT22;52411;52.716;6.696;2023-08-12T03:58:44;19.10;99.90
65692;DHT22;52411;52.716;6.696;2023-08-12T04:01:10;19.10;99.90
65692;DHT22;52411;52.716;6.696;2023-08-12T04:03:36;19.10;99.90
65692;DHT22;52411;52.716;6.696;2023-08-12T04:06:01;19.10;99.90
65692;DHT22;52411;52.716;6.696;2023-08-12T04:08:28;19.10;99.90
65692;DHT22;52411;52.716;6.696;2023-08-12T04:10:54;19.10;99.90
65692;DHT22;52411;52.716;6.696;2023-08-12T04:13:20;19.10;99.90
65692;DHT22;52411;52.716;6.696;2023-08-12T04:15:50;19.10;99.90
65692;DHT22;52411;52.716;6.696;2023-08-12T04:18:16;19.10;99.90
65692;DHT22;52411;52.716;6.696;2023-08-12T04:20:42;19.10;99.90
65692;DHT22;52411;52.716;6.696;2023-08-12T04:23:07;19.10;99.90
65692;DHT22;52411;52.716;6.696;2023-08-12T04:25:33;19.10;99.90
65692;DHT22;52411;52.716;6.696;2023-08-12T04:27:58;19.10;99.90
65692;DHT22;52411;52.716;6.696;2023-08-12T04:30:24;19.10;99.90
65692;DHT22;52411;52.716;6.696;2023-08-12T04:32:50;19.10;99.90
65692;DHT22;52411;52.716;6.696;2023-08-12T04:35:16;19.10;99.90
65692;DHT22;52411;52.716;6.696;2023-08-12T04:37:41;19.10;99.90
65692;DHT22;52411;52.716;6.696;2023-08-12T04:40:07;19.10;99.90
65692;DHT22;52411;52.716;6.696;2023-08-12T04:42:33;19.10;99.90
65692;DHT22;52411;52.716;6.696;2023-08-12T04:44:59;19.10;99.90
65692;DHT22;52411;52.716;6.696;2023-08-12T04:47:25;19.00;99.90
65692;DHT22;52411;52.716;6.696;2023-08-12T04:49:51;19.10;99.90
65692;DHT22;52411;52.716;6.696;2023-08-12T04:52:16;19.10;99.90
65692;DHT22;52411;52.716;6.696;2023-08-12T04:54:42;19.10;99.90
65692;DHT22;52411;52.716;6.696;2023-08-12T04:57:08;19.10;99.90
65692;DHT22;52411;52.716;6.696;2023-08-12T04:59:33;19.10;99.90
65692;DHT22;52411;52.716;6.696;2023-08-12T05:01:59;19.20;99.90
65692;DHT22;52411;52.716;6.696;2023-08-12T05:04:24;19.20;99.90
65692;DHT22;52411;52.716;6.696;2023-08-12T05:06:50;19.20;99.90
65692;DHT22;52411;52.716;6.696;2023-08-12T05:09:16;19.20;99.90
65692;DHT22;52411;52.716;6.696;2023-08-12T05:11:41;19.30;99.90
65692;DHT22;52411;52.716;6.696;2023-08-12T05:14:07;19.30;99.90
65692;DHT22;52411;52.716;6.696;2023-08-12T05:16:33;19.30;99.90
65692;DHT22;52411;52.716;6.696;2023-08-12T05:18:59;19.30;99.90
65692;DHT22;52411;52.716;6.696;2023-08-12T05:21:24;19.40;99.90
65692;DHT22;52411;52.716;6.696;2023-08-12T05:23:50;19.40;99.90
65692;DHT22;52411;52.716;6.696;2023-08-12T05:26:16;19.40;99.90
65692;DHT22;52411;52.716;6.696;2023-08-12T05:28:41;19.60;99.90
65692;DHT22;52411;52.716;6.696;2023-08-12T05:31:07;19.70;99.90
65692;DHT22;52411;52.716;6.696;2023-08-12T05:33:33;19.80;99.90
65692;DHT22;52411;52.716;6.696;2023-08-12T05:35:59;19.90;99.90
65692;DHT22;52411;52.716;6.696;2023-08-12T05:38:24;20.00;99.90
65692;DHT22;52411;52.716;6.696;2023-08-12T05:40:50;20.00;99.90
65692;DHT22;52411;52.716;6.696;2023-08-12T05:43:16;20.10;99.90
65692;DHT22;52411;52.716;6.696;2023-08-12T05:45:41;20.20;99.90
65692;DHT22;52411;52.716;6.696;2023-08-12T05:48:08;20.30;99.90
65692;DHT22;52411;52.716;6.696;2023-08-12T05:50:33;20.30;99.90
65692;DHT22;52411;52.716;6.696;2023-08-12T05:52:59;20.40;99.90
65692;DHT22;52411;52.716;6.696;2023-08-12T05:55:25;20.60;99.90
65692;DHT22;52411;52.716;6.696;2023-08-12T05:57:50;20.70;99.90
65692;DHT22;52411;52.716;6.696;2023-08-12T06:00:16;20.90;99.90
65692;DHT22;52411;52.716;6.696;2023-08-12T06:02:41;21.10;99.90
65692;DHT22;52411;52.716;6.696;2023-08-12T06:05:08;21.30;99.90
65692;DHT22;52411;52.716;6.696;2023-08-12T06:07:33;21.50;99.90
65692;DHT22;52411;52.716;6.696;2023-08-12T06:10:00;21.60;99.90
65692;DHT22;52411;52.716;6.696;2023-08-12T06:12:25;21.60;99.90
65692;DHT22;52411;52.716;6.696;2023-08-12T06:14:51;21.60;99.90
65692;DHT22;52411;52.716;6.696;2023-08-12T06:17:17;21.60;99.90
65692;DHT22;52411;52.716;6.696;2023-08-12T06:19:42;21.50;99.90
65692;DHT22;52411;52.716;6.696;2023-08-12T06:22:08;21.50;99.90
65692;DHT22;52411;52.716;6.696;2023-08-12T06:24:33;21.40;99.90
65692;DHT22;52411;52.716;6.696;2023-08-12T06:26:59;21.30;99.90
65692;DHT22;52411;52.716;6.696;2023-08-12T06:29:25;21.30;99.90
65692;DHT22;52411;52.716;6.696;2023-08-12T06:31:51;21.30;99.90
65692;DHT22;52411;52.716;6.696;2023-08-12T06:34:17;21.30;99.90
65692;DHT22;52411;52.716;6.696;2023-08-12T06:36:42;21.20;99.90
65692;DHT22;52411;52.716;6.696;2023-08-12T06:39:08;21.30;99.90
65692;DHT22;52411;52.716;6.696;2023-08-12T06:41:34;21.20;99.90
65692;DHT22;52411;52.716;6.696;2023-08-12T06:43:59;21.20;99.90
65692;DHT22;52411;52.716;6.696;2023-08-12T06:46:29;21.20;99.90
65692;DHT22;52411;52.716;6.696;2023-08-12T06:48:56;21.10;99.90
65692;DHT22;52411;52.716;6.696;2023-08-12T06:51:22;21.10;99.90
65692;DHT22;52411;52.716;6.696;2023-08-12T06:53:47;21.10;99.90
65692;DHT22;52411;52.716;6.696;2023-08-12T06:56:13;21.10;99.90
65692;DHT22;52411;52.716;6.696;2023-08-12T06:58:38;21.00;99.90
65692;DHT22;52411;52.716;6.696;2023-08-12T07:01:04;21.10;99.90
65692;DHT22;52411;52.716;6.696;2023-08-12T07:03:29;21.00;99.90
65692;DHT22;52411;52.716;6.696;2023-08-12T07:05:55;21.10;99.90
65692;DHT22;52411;52.716;6.696;2023-08-12T07:08:21;21.00;99.90
65692;DHT22;52411;52.716;6.696;2023-08-12T07:10:47;21.00;99.90
65692;DHT22;52411;52.716;6.696;2023-08-12T07:13:12;21.00;99.90
65692;DHT22;52411;52.716;6.696;2023-08-12T07:15:38;20.90;99.90
65692;DHT22;52411;52.716;6.696;2023-08-12T07:18:04;20.90;99.90
65692;DHT22;52411;52.716;6.696;2023-08-12T07:20:30;20.80;99.90
65692;DHT22;52411;52.716;6.696;2023-08-12T07:22:55;20.80;99.90
65692;DHT22;52411;52.716;6.696;2023-08-12T07:25:21;20.80;99.90
65692;DHT22;52411;52.716;6.696;2023-08-12T07:27:47;20.70;99.90
65692;DHT22;52411;52.716;6.696;2023-08-12T07:30:12;20.70;99.90
65692;DHT22;52411;52.716;6.696;2023-08-12T07:32:38;20.70;99.90
65692;DHT22;52411;52.716;6.696;2023-08-12T07:35:05;20.70;99.90
65692;DHT22;52411;52.716;6.696;2023-08-12T07:37:31;20.70;99.90
65692;DHT22;52411;52.716;6.696;2023-08-12T07:39:57;20.70;99.90
65692;DHT22;52411;52.716;6.696;2023-08-12T07:42:23;20.70;99.90
65692;DHT22;52411;52.716;6.696;2023-08-12T07:44:48;20.70;99.90
65692;DHT22;52411;52.716;6.696;2023-08-12T07:47:14;20.80;99.90
65692;DHT22;52411;52.716;6.696;2023-08-12T07:49:41;20.80;99.90
65692;DHT22;52411;52.716;6.696;2023-08-12T07:52:06;20.80;99.90
65692;DHT22;52411;52.716;6.696;2023-08-12T07:54:32;20.80;99.90
65692;DHT22;52411;52.716;6.696;2023-08-12T07:56:58;20.80;99.90
65692;DHT22;52411;52.716;6.696;2023-08-12T07:59:24;20.80;99.90
65692;DHT22;52411;52.716;6.696;2023-08-12T08:01:49;20.80;99.90
65692;DHT22;52411;52.716;6.696;2023-08-12T08:04:15;20.70;99.90
65692;DHT22;52411;52.716;6.696;2023-08-12T08:06:40;20.70;99.90
65692;DHT22;52411;52.716;6.696;2023-08-12T08:09:06;20.70;99.90
65692;DHT22;52411;52.716;6.696;2023-08-12T08:11:31;20.70;99.90
65692;DHT22;52411;52.716;6.696;2023-08-12T08:13:58;20.70;99.90
65692;DHT22;52411;52.716;6.696;2023-08-12T08:16:24;20.60;99.90
65692;DHT22;52411;52.716;6.696;2023-08-12T08:18:49;20.60;99.90
65692;DHT22;52411;52.716;6.696;2023-08-12T08:21:15;20.60;99.90
65692;DHT22;52411;52.716;6.696;2023-08-12T08:23:41;20.50;99.90
65692;DHT22;52411;52.716;6.696;2023-08-12T08:26:08;20.50;99.90
65692;DHT22;52411;52.716;6.696;2023-08-12T08:28:33;20.50;99.90
65692;DHT22;52411;52.716;6.696;2023-08-12T08:31:00;20.50;99.90
65692;DHT22;52411;52.716;6.696;2023-08-12T08:33:26;20.60;99.90
65692;DHT22;52411;52.716;6.696;2023-08-12T08:35:53;20.60;99.90
65692;DHT22;52411;52.716;6.696;2023-08-12T08:38:18;20.70;99.90
65692;DHT22;52411;52.716;6.696;2023-08-12T08:40:44;20.70;99.90
65692;DHT22;52411;52.716;6.696;2023-08-12T08:43:10;20.80;99.90
65692;DHT22;52411;52.716;6.696;2023-08-12T08:45:41;20.80;99.90
65692;DHT22;52411;52.716;6.696;2023-08-12T08:48:10;20.80;99.90
65692;DHT22;52411;52.716;6.696;2023-08-12T08:50:37;20.80;99.90
65692;DHT22;52411;52.716;6.696;2023-08-12T08:53:05;20.80;99.90
65692;DHT22;52411;52.716;6.696;2023-08-12T08:55:31;20.70;99.90
65692;DHT22;52411;52.716;6.696;2023-08-12T08:57:57;20.70;99.90
65692;DHT22;52411;52.716;6.696;2023-08-12T09:00:24;20.70;99.90
65692;DHT22;52411;52.716;6.696;2023-08-12T09:02:50;20.70;99.90
65692;DHT22;52411;52.716;6.696;2023-08-12T09:05:16;20.70;99.90
65692;DHT22;52411;52.716;6.696;2023-08-12T09:07:43;20.60;99.90
65692;DHT22;52411;52.716;6.696;2023-08-12T09:10:12;20.60;99.90
65692;DHT22;52411;52.716;6.696;2023-08-12T09:12:38;20.60;99.90
65692;DHT22;52411;52.716;6.696;2023-08-12T09:15:05;20.60;99.90
65692;DHT22;52411;52.716;6.696;2023-08-12T09:17:31;20.60;99.90
65692;DHT22;52411;52.716;6.696;2023-08-12T09:19:58;20.50;99.90
65692;DHT22;52411;52.716;6.696;2023-08-12T09:22:27;20.50;99.90
65692;DHT22;52411;52.716;6.696;2023-08-12T09:24:56;20.40;99.90
65692;DHT22;52411;52.716;6.696;2023-08-12T09:27:23;20.40;99.90
65692;DHT22;52411;52.716;6.696;2023-08-12T09:29:49;20.40;99.90
65692;DHT22;52411;52.716;6.696;2023-08-12T09:32:19;20.30;99.90
65692;DHT22;52411;52.716;6.696;2023-08-12T09:34:52;20.30;99.90
65692;DHT22;52411;52.716;6.696;2023-08-12T09:37:23;20.20;99.90
65692;DHT22;52411;52.716;6.696;2023-08-12T09:39:51;20.20;99.90
65692;DHT22;52411;52.716;6.696;2023-08-12T09:42:17;20.10;99.90
65692;DHT22;52411;52.716;6.696;2023-08-12T09:44:44;20.10;99.90
65692;DHT22;52411;52.716;6.696;2023-08-12T09:47:10;20.10;99.90
65692;DHT22;52411;52.716;6.696;2023-08-12T09:49:36;20.00;99.90
65692;DHT22;52411;52.716;6.696;2023-08-12T09:52:03;19.90;99.90
65692;DHT22;52411;52.716;6.696;2023-08-12T09:54:33;19.90;99.90
65692;DHT22;52411;52.716;6.696;2023-08-12T09:57:01;19.90;99.90
65692;DHT22;52411;52.716;6.696;2023-08-12T09:59:31;19.90;99.90
65692;DHT22;52411;52.716;6.696;2023-08-12T10:01:57;19.90;99.90
65692;DHT22;52411;52.716;6.696;2023-08-12T10:04:27;19.90;99.90
65692;DHT22;52411;52.716;6.696;2023-08-12T10:06:54;19.90;99.90
65692;DHT22;52411;52.716;6.696;2023-08-12T10:09:20;20.00;99.90
65692;DHT22;52411;52.716;6.696;2023-08-12T10:11:46;20.00;99.90
65692;DHT22;52411;52.716;6.696;2023-08-12T10:14:13;20.10;99.90
65692;DHT22;52411;52.716;6.696;2023-08-12T10:16:42;20.20;99.90
65692;DHT22;52411;52.716;6.696;2023-08-12T10:19:16;20.20;99.90
65692;DHT22;52411;52.716;6.696;2023-08-12T10:21:42;20.20;99.90
65692;DHT22;52411;52.716;6.696;2023-08-12T10:24:10;20.30;99.90
65692;DHT22;52411;52.716;6.696;2023-08-12T10:26:37;20.30;99.90
65692;DHT22;52411;52.716;6.696;2023-08-12T10:29:04;20.30;99.90
65692;DHT22;52411;52.716;6.696;2023-08-12T10:31:29;20.40;99.90
65692;DHT22;52411;52.716;6.696;2023-08-12T10:33:57;20.40;99.90
65692;DHT22;52411;52.716;6.696;2023-08-12T10:36:23;20.50;99.90
65692;DHT22;52411;52.716;6.696;2023-08-12T10:38:48;20.50;99.90
65692;DHT22;52411;52.716;6.696;2023-08-12T10:41:18;20.60;99.90
65692;DHT22;52411;52.716;6.696;2023-08-12T10:49:09;20.60;99.90
65692;DHT22;52411;52.716;6.696;2023-08-12T10:51:51;20.50;99.90
65692;DHT22;52411;52.716;6.696;2023-08-12T10:54:24;20.50;99.90
65692;DHT22;52411;52.716;6.696;2023-08-12T11:02:31;20.70;99.90
65692;DHT22;52411;52.716;6.696;2023-08-12T11:05:07;20.70;99.90
65692;DHT22;52411;52.716;6.696;2023-08-12T11:07:41;20.70;99.90
65692;DHT22;52411;52.716;6.696;2023-08-12T11:10:16;20.90;99.90
65692;DHT22;52411;52.716;6.696;2023-08-12T11:12:48;20.90;99.90
65692;DHT22;52411;52.716;6.696;2023-08-12T11:15:25;21.00;99.90
65692;DHT22;52411;52.716;6.696;2023-08-12T11:17:54;20.90;99.90
65692;DHT22;52411;52.716;6.696;2023-08-12T11:20:21;20.70;99.90
65692;DHT22;52411;52.716;6.696;2023-08-12T11:22:46;20.60;99.90
65692;DHT22;52411;52.716;6.696;2023-08-12T11:25:13;20.50;99.90
65692;DHT22;52411;52.716;6.696;2023-08-12T11:27:44;20.40;99.90
65692;DHT22;52411;52.716;6.696;2023-08-12T11:30:11;20.30;99.90
65692;DHT22;52411;52.716;6.696;2023-08-12T11:32:39;20.20;99.90
65692;DHT22;52411;52.716;6.696;2023-08-12T11:35:06;20.30;99.90
65692;DHT22;52411;52.716;6.696;2023-08-12T11:37:32;20.60;99.90
65692;DHT22;52411;52.716;6.696;2023-08-12T11:39:58;20.90;99.90
65692;DHT22;52411;52.716;6.696;2023-08-12T11:42:24;21.40;99.90
65692;DHT22;52411;52.716;6.696;2023-08-12T11:44:50;21.80;99.90
65692;DHT22;52411;52.716;6.696;2023-08-12T11:47:16;22.30;99.90
65692;DHT22;52411;52.716;6.696;2023-08-12T11:49:41;22.60;99.90
65692;DHT22;52411;52.716;6.696;2023-08-12T11:52:09;23.00;99.90
65692;DHT22;52411;52.716;6.696;2023-08-12T11:54:35;23.10;99.90
65692;DHT22;52411;52.716;6.696;2023-08-12T11:57:01;23.00;99.90
65692;DHT22;52411;52.716;6.696;2023-08-12T11:59:27;22.90;99.90
65692;DHT22;52411;52.716;6.696;2023-08-12T12:01:54;23.00;99.90
65692;DHT22;52411;52.716;6.696;2023-08-12T12:04:21;22.90;99.90
65692;DHT22;52411;52.716;6.696;2023-08-12T12:06:47;22.80;99.90
65692;DHT22;52411;52.716;6.696;2023-08-12T12:09:16;22.60;99.90
65692;DHT22;52411;52.716;6.696;2023-08-12T12:11:44;22.60;99.90
65692;DHT22;52411;52.716;6.696;2023-08-12T12:14:10;22.60;99.90
65692;DHT22;52411;52.716;6.696;2023-08-12T12:16:43;22.40;99.90
65692;DHT22;52411;52.716;6.696;2023-08-12T12:19:17;22.10;99.90
65692;DHT22;52411;52.716;6.696;2023-08-12T12:21:46;21.90;99.90
65692;DHT22;52411;52.716;6.696;2023-08-12T12:24:12;21.70;99.90
65692;DHT22;52411;52.716;6.696;2023-08-12T12:26:37;21.50;99.90
65692;DHT22;52411;52.716;6.696;2023-08-12T12:29:04;21.60;99.90
65692;DHT22;52411;52.716;6.696;2023-08-12T12:31:35;21.80;99.90
65692;DHT22;52411;52.716;6.696;2023-08-12T12:34:04;22.00;99.90
65692;DHT22;52411;52.716;6.696;2023-08-12T12:36:31;22.20;99.90
65692;DHT22;52411;52.716;6.696;2023-08-12T12:38:56;22.20;99.90
65692;DHT22;52411;52.716;6.696;2023-08-12T12:41:22;22.20;99.90
65692;DHT22;52411;52.716;6.696;2023-08-12T12:43:48;22.10;99.90
65692;DHT22;52411;52.716;6.696;2023-08-12T12:46:15;21.90;99.90
65692;DHT22;52411;52.716;6.696;2023-08-12T12:48:41;22.00;99.90
65692;DHT22;52411;52.716;6.696;2023-08-12T12:51:07;22.10;99.90
65692;DHT22;52411;52.716;6.696;2023-08-12T12:53:33;22.20;99.90
65692;DHT22;52411;52.716;6.696;2023-08-12T12:55:59;22.20;99.90
65692;DHT22;52411;52.716;6.696;2023-08-12T12:58:30;22.20;99.90
65692;DHT22;52411;52.716;6.696;2023-08-12T13:00:56;22.30;99.90
65692;DHT22;52411;52.716;6.696;2023-08-12T13:03:22;22.20;99.90
65692;DHT22;52411;52.716;6.696;2023-08-12T13:05:47;22.30;99.90
65692;DHT22;52411;52.716;6.696;2023-08-12T13:08:13;22.40;99.90
65692;DHT22;52411;52.716;6.696;2023-08-12T13:10:38;22.40;99.90
65692;DHT22;52411;52.716;6.696;2023-08-12T13:13:04;22.60;99.90
65692;DHT22;52411;52.716;6.696;2023-08-12T13:15:30;22.80;99.90
65692;DHT22;52411;52.716;6.696;2023-08-12T13:17:55;23.00;99.90
65692;DHT22;52411;52.716;6.696;2023-08-12T13:20:21;23.00;99.90
65692;DHT22;52411;52.716;6.696;2023-08-12T13:22:47;22.90;99.90
65692;DHT22;52411;52.716;6.696;2023-08-12T13:25:12;22.80;99.90
65692;DHT22;52411;52.716;6.696;2023-08-12T13:27:38;22.90;99.90
65692;DHT22;52411;52.716;6.696;2023-08-12T13:30:05;23.10;99.90
65692;DHT22;52411;52.716;6.696;2023-08-12T13:32:30;23.10;99.90
65692;DHT22;52411;52.716;6.696;2023-08-12T13:34:56;23.10;99.90
65692;DHT22;52411;52.716;6.696;2023-08-12T13:37:22;23.10;99.90
65692;DHT22;52411;52.716;6.696;2023-08-12T13:39:47;23.00;99.90
65692;DHT22;52411;52.716;6.696;2023-08-12T13:42:13;23.00;99.90
65692;DHT22;52411;52.716;6.696;2023-08-12T13:44:38;23.00;99.90
65692;DHT22;52411;52.716;6.696;2023-08-12T13:47:04;23.00;99.90
65692;DHT22;52411;52.716;6.696;2023-08-12T13:49:29;23.00;99.90
65692;DHT22;52411;52.716;6.696;2023-08-12T13:51:55;23.00;99.90
65692;DHT22;52411;52.716;6.696;2023-08-12T13:54:21;23.00;99.90
65692;DHT22;52411;52.716;6.696;2023-08-12T13:56:46;23.20;99.90
65692;DHT22;52411;52.716;6.696;2023-08-12T13:59:12;23.30;99.90
65692;DHT22;52411;52.716;6.696;2023-08-12T14:01:37;23.30;99.90
65692;DHT22;52411;52.716;6.696;2023-08-12T14:04:04;23.30;99.90
65692;DHT22;52411;52.716;6.696;2023-08-12T14:06:29;23.50;99.90
65692;DHT22;52411;52.716;6.696;2023-08-12T14:08:55;23.50;99.90
65692;DHT22;52411;52.716;6.696;2023-08-12T14:11:21;23.50;99.90
65692;DHT22;52411;52.716;6.696;2023-08-12T14:13:46;23.80;99.90
65692;DHT22;52411;52.716;6.696;2023-08-12T14:16:12;23.80;99.90
65692;DHT22;52411;52.716;6.696;2023-08-12T14:18:37;23.90;99.90
65692;DHT22;52411;52.716;6.696;2023-08-12T14:21:04;23.90;99.90
65692;DHT22;52411;52.716;6.696;2023-08-12T14:23:29;23.90;99.90
65692;DHT22;52411;52.716;6.696;2023-08-12T14:25:55;23.70;99.90
65692;DHT22;52411;52.716;6.696;2023-08-12T14:28:21;23.80;99.90
65692;DHT22;52411;52.716;6.696;2023-08-12T14:30:46;24.00;99.90
65692;DHT22;52411;52.716;6.696;2023-08-12T14:33:12;23.90;99.90
65692;DHT22;52411;52.716;6.696;2023-08-12T14:35:37;24.10;99.90
65692;DHT22;52411;52.716;6.696;2023-08-12T14:38:03;24.10;99.90
65692;DHT22;52411;52.716;6.696;2023-08-12T14:40:29;24.20;99.90
65692;DHT22;52411;52.716;6.696;2023-08-12T14:42:54;24.60;99.90
65692;DHT22;52411;52.716;6.696;2023-08-12T14:45:20;24.80;99.90
65692;DHT22;52411;52.716;6.696;2023-08-12T14:47:45;24.90;99.90
65692;DHT22;52411;52.716;6.696;2023-08-12T14:50:11;24.90;99.90
65692;DHT22;52411;52.716;6.696;2023-08-12T14:52:37;25.00;99.90
65692;DHT22;52411;52.716;6.696;2023-08-12T14:55:02;25.00;99.90
65692;DHT22;52411;52.716;6.696;2023-08-12T14:57:28;24.90;99.90
65692;DHT22;52411;52.716;6.696;2023-08-12T14:59:54;24.90;99.90
65692;DHT22;52411;52.716;6.696;2023-08-12T15:02:21;25.00;99.90
65692;DHT22;52411;52.716;6.696;2023-08-12T15:04:49;25.20;99.90
65692;DHT22;52411;52.716;6.696;2023-08-12T15:07:15;25.40;99.90
65692;DHT22;52411;52.716;6.696;2023-08-12T15:09:42;25.60;99.90
65692;DHT22;52411;52.716;6.696;2023-08-12T15:12:08;25.60;99.80
65692;DHT22;52411;52.716;6.696;2023-08-12T15:14:33;25.60;99.50
65692;DHT22;52411;52.716;6.696;2023-08-12T15:16:59;25.60;99.30
65692;DHT22;52411;52.716;6.696;2023-08-12T15:19:25;26.00;99.10
65692;DHT22;52411;52.716;6.696;2023-08-12T15:21:50;26.40;98.90
65692;DHT22;52411;52.716;6.696;2023-08-12T15:24:16;26.40;98.40
65692;DHT22;52411;52.716;6.696;2023-08-12T15:26:42;26.60;98.00
65692;DHT22;52411;52.716;6.696;2023-08-12T15:29:08;25.90;97.20
65692;DHT22;52411;52.716;6.696;2023-08-12T15:31:34;26.10;96.90
65692;DHT22;52411;52.716;6.696;2023-08-12T15:34:00;26.60;97.20
65692;DHT22;52411;52.716;6.696;2023-08-12T15:36:25;26.80;96.60